Terminal Aerodrome Forecast
Issued by NWS Brownsville, TX

Home | Current Version | Previous Version | Text Only | Print | Product List | Glossary On
Versions: 1 2 3 4 5 6 7 8 9 10 11 12 13 14
000
FTUS44 KBRO 012340
TAFHRL
TAF
KHRL 012340Z 0200/0224 35003KT P6SM VCSH SCT040 BKN080
      TEMPO 0203/0206 35015G25KT
     FM020700 36018G30KT 5SM -RA VCTS BKN030CB
     FM021200 02020G26KT P6SM -RA VCSH OVC022
     FM021800 02015G20KT P6SM OVC050=

USA.gov is the U.S. government's official web portal to all federal, state and local government web resources and services.